createdAt,value
2022-10-23T00:02:17.870Z,10.90
2022-10-23T00:04:49.897Z,10.80
2022-10-23T00:07:20.107Z,10.80
2022-10-23T00:09:50.015Z,10.70
2022-10-23T00:12:19.706Z,10.70
2022-10-23T00:14:49.433Z,10.70
2022-10-23T00:17:19.070Z,10.70
2022-10-23T00:19:48.541Z,10.70
2022-10-23T00:22:18.163Z,10.70
2022-10-23T00:24:47.787Z,10.70
2022-10-23T00:27:17.266Z,10.70
2022-10-23T00:29:46.933Z,10.70
2022-10-23T00:32:16.500Z,10.70
2022-10-23T00:34:46.267Z,10.70
2022-10-23T00:37:16.086Z,10.70
2022-10-23T00:39:45.879Z,10.60
2022-10-23T00:42:18.966Z,10.50
2022-10-23T00:45:15.987Z,10.42
2022-10-23T00:47:46.871Z,10.30
2022-10-23T00:50:17.220Z,10.26
2022-10-23T00:52:51.305Z,10.20
2022-10-23T00:55:24.928Z,10.14
2022-10-23T00:57:55.128Z,10.10
2022-10-23T01:00:28.282Z,10.00
2022-10-23T01:02:59.487Z,9.90
2022-10-23T01:05:42.149Z,9.86
2022-10-23T01:08:22.119Z,9.80
2022-10-23T01:11:03.773Z,9.80
2022-10-23T01:13:44.368Z,9.80
2022-10-23T01:16:23.778Z,9.80
2022-10-23T01:19:04.593Z,9.80
2022-10-23T01:21:53.872Z,9.72
2022-10-23T01:24:45.822Z,9.70
2022-10-23T01:27:23.812Z,9.76
2022-10-23T01:30:06.416Z,9.80
2022-10-23T01:32:52.496Z,9.80
2022-10-23T01:35:27.382Z,9.80
2022-10-23T01:38:09.450Z,9.80
2022-10-23T01:40:50.694Z,9.80
2022-10-23T01:43:25.808Z,9.80
2022-10-23T01:46:02.163Z,9.80
2022-10-23T01:48:34.779Z,9.80
2022-10-23T01:51:08.935Z,9.80
2022-10-23T01:53:44.354Z,9.80
2022-10-23T01:56:20.113Z,9.80
2022-10-23T01:58:55.078Z,9.70
2022-10-23T02:01:30.876Z,9.60
2022-10-23T02:04:06.563Z,9.50
2022-10-23T02:06:36.149Z,9.40
2022-10-23T02:09:06.781Z,9.30
2022-10-23T02:11:45.135Z,9.30
2022-10-23T02:14:26.425Z,9.20
2022-10-23T02:17:01.703Z,9.10
2022-10-23T02:19:42.300Z,9.04
2022-10-23T02:22:21.875Z,9.02
2022-10-23T02:24:56.926Z,9.00
2022-10-23T02:27:32.881Z,9.00
2022-10-23T02:30:07.843Z,9.04
2022-10-23T02:32:45.868Z,9.10
2022-10-23T02:35:16.677Z,9.18
2022-10-23T02:37:55.377Z,9.20
2022-10-23T02:40:35.558Z,9.10
2022-10-23T02:43:18.960Z,9.10
2022-10-23T02:45:59.824Z,9.00
2022-10-23T02:48:41.585Z,9.00
2022-10-23T02:51:20.945Z,8.98
2022-10-23T02:54:03.002Z,8.92
2022-10-23T02:56:44.214Z,8.90
2022-10-23T02:59:24.033Z,8.90
2022-10-23T03:02:02.417Z,8.80
2022-10-23T03:04:35.138Z,8.80
2022-10-23T03:07:05.610Z,8.80
2022-10-23T03:09:36.728Z,8.80
2022-10-23T03:12:06.869Z,8.80
2022-10-23T03:14:36.838Z,8.80
2022-10-23T03:17:06.583Z,8.80
2022-10-23T03:19:36.111Z,8.80
2022-10-23T03:22:06.464Z,8.80
2022-10-23T03:24:36.019Z,8.80
2022-10-23T03:27:05.650Z,8.80
2022-10-23T03:29:35.306Z,8.90
2022-10-23T03:32:05.338Z,8.90
2022-10-23T03:34:35.254Z,8.90
2022-10-23T03:37:06.305Z,8.90
2022-10-23T03:39:35.881Z,8.90
2022-10-23T03:42:05.948Z,9.00
2022-10-23T03:44:35.512Z,9.02
2022-10-23T03:47:05.462Z,9.10
2022-10-23T03:49:34.970Z,9.10
2022-10-23T03:52:08.947Z,9.20
2022-10-23T03:54:38.792Z,9.20
2022-10-23T03:57:08.262Z,9.20
2022-10-23T03:59:38.546Z,9.20
2022-10-23T04:02:08.749Z,9.20
2022-10-23T04:04:38.480Z,9.30
2022-10-23T04:07:08.300Z,9.30
2022-10-23T04:09:38.257Z,9.30
2022-10-23T04:12:09.288Z,9.34
2022-10-23T04:14:39.166Z,9.40
2022-10-23T04:17:08.980Z,9.40
2022-10-23T04:19:38.717Z,9.40
2022-10-23T04:22:08.437Z,9.50
2022-10-23T04:24:38.447Z,9.50
2022-10-23T04:27:08.719Z,9.50
2022-10-23T04:29:38.903Z,9.48
2022-10-23T04:32:09.509Z,9.50
2022-10-23T04:34:39.246Z,9.48
2022-10-23T04:37:09.031Z,9.42
2022-10-23T04:39:40.291Z,9.50
2022-10-23T04:42:09.908Z,9.40
2022-10-23T04:44:39.581Z,9.40
2022-10-23T04:47:09.374Z,9.40
2022-10-23T04:49:48.588Z,9.32
2022-10-23T04:52:38.228Z,9.30
2022-10-23T04:55:29.441Z,9.20
2022-10-23T04:58:22.391Z,9.10
2022-10-23T05:00:54.480Z,9.10
2022-10-23T05:03:29.418Z,9.20
2022-10-23T05:06:01.425Z,9.18
2022-10-23T05:08:49.465Z,9.10
2022-10-23T05:11:35.399Z,9.00
2022-10-23T05:14:10.456Z,9.00
2022-10-23T05:16:51.407Z,9.00
2022-10-23T05:19:30.388Z,9.00
2022-10-23T05:22:02.394Z,9.00
2022-10-23T05:24:50.755Z,9.00
2022-10-23T05:27:27.407Z,9.00
2022-10-23T05:30:00.418Z,9.00
2022-10-23T05:32:35.397Z,9.00
2022-10-23T05:35:12.387Z,9.00
2022-10-23T05:37:49.387Z,9.00
2022-10-23T05:40:27.488Z,9.00
2022-10-23T05:43:05.400Z,9.00
2022-10-23T05:45:50.476Z,9.10
2022-10-23T05:48:41.376Z,9.10
2022-10-23T05:51:20.393Z,9.14
2022-10-23T06:01:53.614Z,9.30
2022-10-23T06:04:46.197Z,9.30
2022-10-23T06:07:38.562Z,9.30
2022-10-23T06:10:15.485Z,9.30
2022-10-23T06:12:52.741Z,9.30
2022-10-23T06:15:27.293Z,9.30
2022-10-23T06:18:08.368Z,9.32
2022-10-23T06:20:44.777Z,9.38
2022-10-23T06:23:24.007Z,9.40
2022-10-23T06:26:20.373Z,9.40
2022-10-23T06:29:14.434Z,9.40
2022-10-23T06:31:49.166Z,9.48
2022-10-23T06:34:23.081Z,9.50
2022-10-23T06:36:57.444Z,9.60
2022-10-23T06:39:57.571Z,9.60
2022-10-23T06:43:01.695Z,9.70
2022-10-23T06:45:41.580Z,9.80
2022-10-23T06:48:21.549Z,9.80
2022-10-23T06:51:14.151Z,9.88
2022-10-23T06:53:50.012Z,9.90
2022-10-23T06:56:42.487Z,10.00
2022-10-23T06:59:16.592Z,10.10
2022-10-23T07:01:50.583Z,10.20
2022-10-23T07:04:26.549Z,10.20
2022-10-23T07:07:00.962Z,10.30
2022-10-23T07:09:41.490Z,10.42
2022-10-23T07:12:29.229Z,10.60
2022-10-23T07:15:24.085Z,10.70
2022-10-23T07:17:58.679Z,10.80
2022-10-23T07:20:36.546Z,10.84
2022-10-23T07:23:12.427Z,11.00
2022-10-23T07:25:46.537Z,11.10
2022-10-23T07:28:21.600Z,11.30
2022-10-23T07:31:02.378Z,11.40
2022-10-23T07:33:56.710Z,11.50
2022-10-23T07:36:31.205Z,11.68
2022-10-23T07:39:05.055Z,11.80
2022-10-23T07:41:40.586Z,11.90
2022-10-23T07:44:15.482Z,12.10
2022-10-23T07:46:49.435Z,12.30
2022-10-23T07:49:23.690Z,12.60
2022-10-23T07:51:59.081Z,12.80
2022-10-23T07:54:37.752Z,13.18
2022-10-23T07:57:26.877Z,13.50
2022-10-23T08:00:15.556Z,13.78
2022-10-23T08:02:54.092Z,14.00
2022-10-23T08:05:28.172Z,14.10
2022-10-23T08:08:06.378Z,14.30
2022-10-23T08:10:41.649Z,14.40
2022-10-23T08:13:20.410Z,14.50
2022-10-23T08:15:59.615Z,14.60
2022-10-23T08:19:03.604Z,14.70
2022-10-23T08:21:37.388Z,14.70
2022-10-23T08:24:14.037Z,14.60
2022-10-23T08:26:51.561Z,14.62
2022-10-23T08:29:27.073Z,14.72
2022-10-23T08:32:00.833Z,14.80
2022-10-23T08:34:44.962Z,14.90
2022-10-23T08:37:18.989Z,15.10
2022-10-23T08:39:55.016Z,15.20
2022-10-23T08:42:55.205Z,15.40
2022-10-23T08:45:39.673Z,15.70
2022-10-23T08:48:27.642Z,16.10
2022-10-23T08:51:29.026Z,16.32
2022-10-23T08:54:13.848Z,16.50
2022-10-23T08:56:52.163Z,16.58
2022-10-23T08:59:34.258Z,16.60
2022-10-23T09:02:22.667Z,16.60
2022-10-23T09:04:59.241Z,16.70
2022-10-23T09:07:52.712Z,16.80
2022-10-23T09:11:00.221Z,17.20
2022-10-23T09:14:04.585Z,17.48
2022-10-23T09:17:03.089Z,17.70
2022-10-23T09:19:37.421Z,18.00
2022-10-23T09:22:12.709Z,18.20
2022-10-23T09:24:53.014Z,18.52
2022-10-23T09:27:28.106Z,19.04
2022-10-23T09:30:02.052Z,19.42
2022-10-23T09:32:40.306Z,19.80
2022-10-23T09:35:29.778Z,19.80
2022-10-23T09:38:04.004Z,19.90
2022-10-23T09:40:44.696Z,19.90
2022-10-23T09:43:23.398Z,19.90
2022-10-23T09:46:06.234Z,19.82
2022-10-23T09:48:42.424Z,20.10
2022-10-23T09:51:24.982Z,20.36
2022-10-23T09:54:01.916Z,20.48
2022-10-23T09:56:42.267Z,20.54
2022-10-23T09:59:29.186Z,20.50
2022-10-23T10:02:05.306Z,20.40
2022-10-23T10:04:50.672Z,20.60
2022-10-23T10:07:29.415Z,20.80
2022-10-23T10:10:08.951Z,20.90
2022-10-23T10:12:58.399Z,21.08
2022-10-23T10:15:45.855Z,21.50
2022-10-23T10:18:32.561Z,21.44
2022-10-23T10:21:19.859Z,21.40
2022-10-23T10:24:01.647Z,21.40
2022-10-23T10:26:45.722Z,21.30
2022-10-23T10:29:37.073Z,21.54
2022-10-23T10:32:32.275Z,22.24
2022-10-23T10:35:25.179Z,22.52
2022-10-23T10:38:35.621Z,22.70
2022-10-23T10:41:37.630Z,22.20
2022-10-23T10:44:31.298Z,21.80
2022-10-23T10:47:21.616Z,21.82
2022-10-23T10:50:19.773Z,21.90
2022-10-23T10:53:25.343Z,21.80
2022-10-23T10:56:04.686Z,21.70
2022-10-23T10:58:47.815Z,21.60
2022-10-23T11:01:30.282Z,21.60
2022-10-23T11:04:15.676Z,21.80
2022-10-23T11:06:55.439Z,22.28
2022-10-23T11:09:33.462Z,22.50
2022-10-23T11:12:07.968Z,22.60
2022-10-23T11:14:46.285Z,22.70
2022-10-23T11:17:27.849Z,23.00
2022-10-23T11:20:10.081Z,23.10
2022-10-23T11:22:54.942Z,23.20
2022-10-23T11:26:02.099Z,23.32
2022-10-23T11:29:00.570Z,23.40
2022-10-23T11:31:47.261Z,23.60
2022-10-23T11:34:49.109Z,23.70
2022-10-23T11:37:26.921Z,23.90
2022-10-23T11:40:25.962Z,24.10
2022-10-23T11:43:01.485Z,24.38
2022-10-23T11:45:41.665Z,24.50
2022-10-23T11:48:41.273Z,24.70
2022-10-23T11:51:33.426Z,24.96
2022-10-23T11:54:27.839Z,25.54
2022-10-23T11:57:17.774Z,25.50
2022-10-23T12:00:00.994Z,25.40
2022-10-23T12:02:39.226Z,25.38
2022-10-23T12:05:42.227Z,25.50
2022-10-23T12:08:27.954Z,25.40
2022-10-23T12:11:02.283Z,25.50
2022-10-23T12:13:49.087Z,25.22
2022-10-23T12:16:23.057Z,24.82
2022-10-23T12:18:58.084Z,24.50
2022-10-23T12:21:41.044Z,24.20
2022-10-23T12:24:40.025Z,24.00
2022-10-23T12:27:31.818Z,24.10
2022-10-23T12:30:31.907Z,24.30
2022-10-23T12:33:24.067Z,24.38
2022-10-23T12:36:23.119Z,24.56
2022-10-23T12:38:58.859Z,24.40
2022-10-23T12:41:35.996Z,24.28
2022-10-23T12:44:14.054Z,24.40
2022-10-23T12:46:55.589Z,24.70
2022-10-23T12:49:34.957Z,24.56
2022-10-23T12:52:19.871Z,24.30
2022-10-23T12:54:53.995Z,24.36
2022-10-23T12:57:31.451Z,24.50
2022-10-23T13:00:17.734Z,24.70
2022-10-23T13:03:03.985Z,25.00
2022-10-23T13:05:39.030Z,25.30
2022-10-23T13:08:14.872Z,25.30
2022-10-23T13:10:57.018Z,25.20
2022-10-23T13:13:32.058Z,25.16
2022-10-23T13:16:17.366Z,25.54
2022-10-23T13:18:52.185Z,25.60
2022-10-23T13:21:29.615Z,25.50
2022-10-23T13:24:17.581Z,25.50
2022-10-23T13:26:51.758Z,25.90
2022-10-23T13:29:31.667Z,26.10
2022-10-23T13:32:22.967Z,26.20
2022-10-23T13:35:10.139Z,26.20
2022-10-23T13:37:51.755Z,26.10
2022-10-23T13:40:29.148Z,26.20
2022-10-23T13:43:03.035Z,26.58
2022-10-23T13:45:43.340Z,27.20
2022-10-23T13:48:18.753Z,27.18
2022-10-23T13:50:53.018Z,27.00
2022-10-23T13:53:26.717Z,26.90
2022-10-23T13:56:01.443Z,26.86
2022-10-23T13:58:35.899Z,26.80
2022-10-23T14:01:17.972Z,26.88
2022-10-23T14:03:53.184Z,26.26
2022-10-23T14:06:27.778Z,25.60
2022-10-23T14:09:01.772Z,25.10
2022-10-23T14:11:35.713Z,24.60
2022-10-23T14:14:10.004Z,24.20
2022-10-23T14:16:43.788Z,23.90
2022-10-23T14:19:17.473Z,23.62
2022-10-23T14:21:51.552Z,23.30
2022-10-23T14:24:25.894Z,23.10
2022-10-23T14:27:00.271Z,22.80
2022-10-23T14:29:36.669Z,22.40
2022-10-23T14:32:10.958Z,22.50
2022-10-23T14:34:51.504Z,22.60
2022-10-23T14:37:25.759Z,23.04
2022-10-23T14:40:00.212Z,23.10
2022-10-23T14:42:34.489Z,22.88
2022-10-23T14:45:10.699Z,22.60
2022-10-23T14:47:44.833Z,22.30
2022-10-23T14:50:20.481Z,22.10
2022-10-23T14:52:54.577Z,21.90
2022-10-23T14:55:28.489Z,21.70
2022-10-23T14:58:02.763Z,21.40
2022-10-23T15:00:36.727Z,21.12
2022-10-23T15:03:10.599Z,20.80
2022-10-23T15:05:46.988Z,20.48
2022-10-23T15:08:20.996Z,20.14
2022-10-23T15:10:54.985Z,19.80
2022-10-23T15:13:29.326Z,19.50
2022-10-23T15:16:16.332Z,19.20
2022-10-23T15:18:50.791Z,18.96
2022-10-23T15:21:24.998Z,18.70
2022-10-23T15:24:01.657Z,18.44
2022-10-23T15:26:36.197Z,18.20
2022-10-23T15:29:17.169Z,18.00
2022-10-23T15:31:56.100Z,17.80
2022-10-23T15:34:32.572Z,17.54
2022-10-23T15:37:07.629Z,17.30
2022-10-23T15:39:44.447Z,17.14
2022-10-23T15:42:19.214Z,16.92
2022-10-23T15:44:55.353Z,16.80
2022-10-23T15:47:29.331Z,16.60
2022-10-23T15:50:03.310Z,16.40
2022-10-23T15:52:38.017Z,16.30
2022-10-23T15:55:14.232Z,16.16
2022-10-23T15:57:50.107Z,16.00
2022-10-23T16:00:26.076Z,15.90
2022-10-23T16:03:03.087Z,15.80
2022-10-23T16:05:40.087Z,15.70
2022-10-23T16:08:16.261Z,15.60
2022-10-23T16:10:52.158Z,15.50
2022-10-23T16:13:29.094Z,15.40
2022-10-23T16:16:10.112Z,15.30
2022-10-23T16:18:47.154Z,15.30
2022-10-23T16:21:28.174Z,15.20
2022-10-23T16:24:07.271Z,15.10
2022-10-23T16:26:45.166Z,15.02
2022-10-23T16:29:22.244Z,14.96
2022-10-23T16:32:01.082Z,14.90
2022-10-23T16:34:35.947Z,14.80
2022-10-23T16:37:13.100Z,14.70
2022-10-23T16:40:15.066Z,14.66
2022-10-23T16:43:09.120Z,14.60
2022-10-23T16:45:50.087Z,14.50
2022-10-23T16:48:26.122Z,14.40
2022-10-23T16:51:02.106Z,14.30
2022-10-23T16:53:38.120Z,14.22
2022-10-23T16:56:17.136Z,14.20
2022-10-23T16:58:54.233Z,14.12
2022-10-23T17:01:34.108Z,14.10
2022-10-23T17:04:13.355Z,14.08
2022-10-23T17:06:50.325Z,14.00
2022-10-23T17:09:32.198Z,14.00
2022-10-23T17:12:10.195Z,13.90
2022-10-23T17:14:46.338Z,13.86
2022-10-23T17:17:22.266Z,13.80
2022-10-23T17:19:59.314Z,13.70
2022-10-23T17:22:36.189Z,13.70
2022-10-23T17:25:14.394Z,13.60
2022-10-23T17:27:51.192Z,13.60
2022-10-23T17:30:29.178Z,13.60
2022-10-23T17:33:06.185Z,13.50
2022-10-23T17:35:43.101Z,13.50
2022-10-23T17:38:20.082Z,13.40
2022-10-23T17:40:57.375Z,13.40
2022-10-23T17:43:32.180Z,13.40
2022-10-23T17:46:10.266Z,13.30
2022-10-23T17:48:47.391Z,13.30
2022-10-23T17:51:27.366Z,13.30
2022-10-23T18:02:33.259Z,13.02
2022-10-23T18:05:09.648Z,13.00
2022-10-23T18:07:44.000Z,13.00
2022-10-23T18:10:18.470Z,13.00
2022-10-23T18:12:53.331Z,13.00
2022-10-23T18:15:27.416Z,12.90
2022-10-23T18:18:01.903Z,12.90
2022-10-23T18:20:41.148Z,12.90
2022-10-23T18:23:15.304Z,12.90
2022-10-23T18:25:49.557Z,12.90
2022-10-23T18:28:24.033Z,12.90
2022-10-23T18:30:58.904Z,12.82
2022-10-23T18:33:33.336Z,12.86
2022-10-23T18:36:15.426Z,12.80
2022-10-23T18:38:49.978Z,12.80
2022-10-23T18:41:24.819Z,12.80
2022-10-23T18:43:59.428Z,12.86
2022-10-23T18:46:33.360Z,12.86
2022-10-23T18:49:09.219Z,12.90
2022-10-23T18:51:43.905Z,12.80
2022-10-23T18:54:21.343Z,12.80
2022-10-23T18:56:56.627Z,12.80
2022-10-23T18:59:31.611Z,12.80
2022-10-23T19:02:06.039Z,12.80
2022-10-23T19:04:40.392Z,12.80
2022-10-23T19:07:14.905Z,12.80
2022-10-23T19:09:49.842Z,12.80
2022-10-23T19:12:24.540Z,12.70
2022-10-23T19:15:00.377Z,12.70
2022-10-23T19:17:37.063Z,12.70
2022-10-23T19:20:18.254Z,12.70
2022-10-23T19:22:58.307Z,12.70
2022-10-23T19:25:36.377Z,12.70
2022-10-23T19:28:10.741Z,12.70
2022-10-23T19:30:45.463Z,12.70
2022-10-23T19:33:20.508Z,12.70
2022-10-23T19:35:55.477Z,12.70
2022-10-23T19:38:30.198Z,12.70
2022-10-23T19:41:05.051Z,12.70
2022-10-23T19:43:39.769Z,12.70
2022-10-23T19:46:13.816Z,12.70
2022-10-23T19:48:47.719Z,12.70
2022-10-23T19:51:22.212Z,12.70
2022-10-23T19:54:00.337Z,12.70
2022-10-23T19:56:35.511Z,12.64
2022-10-23T19:59:13.119Z,12.60
2022-10-23T20:01:48.904Z,12.60
2022-10-23T20:04:23.971Z,12.60
2022-10-23T20:06:57.819Z,12.60
2022-10-23T20:09:34.179Z,12.60
2022-10-23T20:12:09.439Z,12.66
2022-10-23T20:14:43.819Z,12.70
2022-10-23T20:17:19.005Z,12.64
2022-10-23T20:19:53.865Z,12.60
2022-10-23T20:22:28.532Z,12.60
2022-10-23T20:25:03.009Z,12.60
2022-10-23T20:30:19.081Z,12.50
2022-10-23T20:32:53.609Z,12.50
2022-10-23T20:35:28.129Z,12.50
2022-10-23T20:38:02.003Z,12.50
2022-10-23T20:40:36.744Z,12.50
2022-10-23T20:43:10.903Z,12.60
2022-10-23T20:45:45.024Z,12.60
2022-10-23T20:48:20.612Z,12.66
2022-10-23T20:50:55.605Z,12.70
2022-10-23T20:53:30.319Z,12.70
2022-10-23T20:56:08.059Z,12.74
2022-10-23T20:58:41.826Z,12.80
2022-10-23T21:01:19.267Z,12.80
2022-10-23T21:03:57.881Z,12.80
2022-10-23T21:06:46.105Z,12.80
2022-10-23T21:09:30.056Z,12.84
2022-10-23T21:12:03.755Z,12.88
2022-10-23T21:14:37.709Z,12.80
2022-10-23T21:17:16.851Z,12.80
2022-10-23T21:19:50.728Z,12.80
2022-10-23T21:22:24.472Z,12.80
2022-10-23T21:25:00.242Z,12.70
2022-10-23T21:27:35.290Z,12.70
2022-10-23T21:30:12.912Z,12.70
2022-10-23T21:32:46.796Z,12.70
2022-10-23T21:35:21.383Z,12.70
2022-10-23T21:37:55.446Z,12.70
2022-10-23T21:40:29.347Z,12.60
2022-10-23T21:43:03.368Z,12.60
2022-10-23T21:45:39.417Z,12.50
2022-10-23T21:48:13.425Z,12.48
2022-10-23T21:50:47.175Z,12.40
2022-10-23T21:53:20.927Z,12.40
2022-10-23T21:55:55.325Z,12.30
2022-10-23T21:58:29.036Z,12.30
2022-10-23T22:01:03.218Z,12.30
2022-10-23T22:03:37.143Z,12.30
2022-10-23T22:06:15.177Z,12.30
2022-10-23T22:08:49.511Z,12.26
2022-10-23T22:11:23.912Z,12.20
2022-10-23T22:13:58.040Z,12.20
2022-10-23T22:16:32.016Z,12.10
2022-10-23T22:19:07.558Z,12.10
2022-10-23T22:21:41.362Z,12.06
2022-10-23T22:24:16.141Z,12.00
2022-10-23T22:26:52.975Z,12.10
2022-10-23T22:29:29.901Z,12.10
2022-10-23T22:32:03.648Z,12.10
2022-10-23T22:34:53.654Z,12.10
2022-10-23T22:37:27.473Z,12.10
2022-10-23T22:40:01.879Z,12.20
2022-10-23T22:42:35.965Z,12.20
2022-10-23T22:45:12.106Z,12.20
2022-10-23T22:47:45.723Z,12.20
2022-10-23T22:50:19.739Z,12.20
2022-10-23T22:52:53.305Z,12.20
2022-10-23T22:55:26.863Z,12.20
2022-10-23T22:58:00.488Z,12.22
2022-10-23T23:00:34.262Z,12.24
2022-10-23T23:03:08.385Z,12.26
2022-10-23T23:05:47.020Z,12.28
2022-10-23T23:08:20.647Z,12.30
2022-10-23T23:10:58.802Z,12.30
2022-10-23T23:13:33.111Z,12.30
2022-10-23T23:16:08.816Z,12.30
2022-10-23T23:18:42.323Z,12.40
2022-10-23T23:21:16.402Z,12.40
2022-10-23T23:23:50.910Z,12.40
2022-10-23T23:26:25.644Z,12.40
2022-10-23T23:28:59.282Z,12.40
2022-10-23T23:31:32.933Z,12.40
2022-10-23T23:34:06.759Z,12.40
2022-10-23T23:36:40.433Z,12.46
2022-10-23T23:39:14.375Z,12.50
2022-10-23T23:41:47.930Z,12.50
2022-10-23T23:44:21.455Z,12.48
2022-10-23T23:46:55.143Z,12.40
2022-10-23T23:49:28.969Z,12.42
2022-10-23T23:52:02.696Z,12.50
2022-10-23T23:54:36.232Z,12.50
2022-10-23T23:57:10.932Z,12.50
2022-10-23T23:59:45.428Z,12.50
